Time;durP1;ratioP1;P1;durP2;ratioP2;P2;SDS_P1;SDS_P2;PMS_P1;PMS_P2;Temp;Humidity;BMP_temperature;BMP_pressure;BME280_temperature;BME280_humidity;BME280_pressure;Samples;Min_cycle;Max_cycle;Signal;HPM_P1;HPM_P2
2023/06/26 00:02:23;;;;;;;11.07;9.70;;;20.20;99.90;;;;;;5181421;28;20184;-43
2023/06/26 00:04:54;;;;;;;18.03;9.70;;;20.20;99.90;;;;;;5181643;28;20193;-44
2023/06/26 00:07:24;;;;;;;9.40;8.37;;;20.20;99.90;;;;;;5179731;28;20184;-42
2023/06/26 00:09:55;;;;;;;14.63;10.57;;;20.20;99.90;;;;;;5166418;28;20224;-43
2023/06/26 00:12:27;;;;;;;11.97;9.10;;;20.20;99.90;;;;;;5168958;28;20208;-43
2023/06/26 00:14:58;;;;;;;15.03;9.60;;;20.20;99.90;;;;;;5179426;28;20189;-45
2023/06/26 00:17:28;;;;;;;18.83;10.53;;;20.30;99.90;;;;;;5168224;28;20530;-43
2023/06/26 00:19:59;;;;;;;18.47;9.40;;;20.30;99.90;;;;;;5180310;28;20436;-43
2023/06/26 00:22:30;;;;;;;15.87;10.63;;;20.30;99.90;;;;;;5183368;28;20219;-43
2023/06/26 00:25:00;;;;;;;11.47;10.27;;;20.30;99.90;;;;;;5160692;28;20195;-43
2023/06/26 00:27:31;;;;;;;9.27;8.30;;;20.30;99.90;;;;;;5182078;28;20226;-43
2023/06/26 00:30:03;;;;;;;11.90;9.40;;;20.30;99.90;;;;;;5170756;28;20185;-43
2023/06/26 00:32:33;;;;;;;9.40;8.50;;;20.20;99.90;;;;;;5170315;28;20204;-43
2023/06/26 00:35:04;;;;;;;12.93;9.80;;;20.20;99.90;;;;;;5186827;28;20448;-42
2023/06/26 00:37:35;;;;;;;18.13;10.50;;;20.20;99.90;;;;;;5172117;28;20192;-43
2023/06/26 00:40:06;;;;;;;14.17;9.40;;;20.20;99.90;;;;;;5173198;28;20188;-43
2023/06/26 00:42:37;;;;;;;13.13;9.53;;;20.20;99.90;;;;;;5169995;28;20193;-43
2023/06/26 00:45:07;;;;;;;22.10;9.80;;;20.20;99.90;;;;;;5150948;28;20443;-43
2023/06/26 00:47:38;;;;;;;11.43;9.57;;;20.20;99.90;;;;;;5177567;28;20243;-43
2023/06/26 00:50:09;;;;;;;15.53;10.70;;;20.20;99.90;;;;;;5159747;28;20215;-43
2023/06/26 00:52:40;;;;;;;9.80;8.80;;;20.20;99.90;;;;;;5184773;28;20463;-43
2023/06/26 00:55:11;;;;;;;13.40;10.27;;;20.30;99.90;;;;;;5173071;28;20428;-43
2023/06/26 00:57:43;;;;;;;15.43;10.40;;;20.30;99.90;;;;;;5189121;28;20251;-43
2023/06/26 01:00:14;;;;;;;18.33;10.97;;;20.30;99.90;;;;;;5187900;28;20243;-42
2023/06/26 01:02:46;;;;;;;11.17;9.57;;;20.30;99.90;;;;;;5186682;28;20444;-43
2023/06/26 01:05:20;;;;;;;17.10;10.17;;;20.30;99.90;;;;;;5187142;28;20432;-43
2023/06/26 01:07:51;;;;;;;16.90;10.90;;;20.40;99.90;;;;;;5170169;28;20476;-43
2023/06/26 01:10:22;;;;;;;14.00;10.80;;;20.40;99.90;;;;;;5177707;28;20924;-43
2023/06/26 01:12:54;;;;;;;8.83;7.97;;;20.40;99.90;;;;;;5192778;28;20200;-43
2023/06/26 01:15:24;;;;;;;10.90;9.80;;;20.40;99.90;;;;;;5190138;28;20459;-43
2023/06/26 01:17:59;;;;;;;11.17;9.50;;;20.40;99.90;;;;;;5186743;28;20431;-42
2023/06/26 01:20:32;;;;;;;11.47;10.27;;;20.40;99.90;;;;;;5185110;28;20226;-43
2023/06/26 01:23:29;;;;;;;16.23;10.30;;;20.40;99.90;;;;;;5170561;28;20439;-43
2023/06/26 01:26:20;;;;;;;13.87;10.60;;;20.40;99.90;;;;;;5156462;28;20447;-43
2023/06/26 01:28:53;;;;;;;11.00;9.30;;;20.40;99.90;;;;;;5193652;28;20440;-42
2023/06/26 01:31:24;;;;;;;13.17;9.80;;;20.40;99.90;;;;;;5188867;28;20538;-44
2023/06/26 01:33:57;;;;;;;12.53;10.17;;;20.40;99.90;;;;;;5189325;28;20462;-42
2023/06/26 01:36:28;;;;;;;10.83;9.73;;;20.40;99.90;;;;;;5185164;28;20467;-43
2023/06/26 01:38:58;;;;;;;11.37;10.17;;;20.30;99.90;;;;;;5174751;28;20431;-43
2023/06/26 01:41:29;;;;;;;11.50;10.00;;;20.40;99.90;;;;;;5173461;28;20653;-43
2023/06/26 01:44:12;;;;;;;11.97;10.47;;;20.30;99.90;;;;;;5188347;28;20291;-42
2023/06/26 01:47:01;;;;;;;12.00;10.27;;;20.30;99.90;;;;;;5180656;28;20176;-43
2023/06/26 01:49:54;;;;;;;15.63;11.40;;;20.30;99.90;;;;;;5175933;28;20411;-44
2023/06/26 01:52:31;;;;;;;11.73;9.93;;;20.30;99.90;;;;;;5187183;28;20465;-42
2023/06/26 01:55:21;;;;;;;18.40;11.43;;;20.20;99.90;;;;;;5182347;28;20431;-41
2023/06/26 01:57:56;;;;;;;13.80;10.03;;;20.20;99.90;;;;;;5175743;28;20431;-42
2023/06/26 02:00:27;;;;;;;13.40;10.47;;;20.20;99.90;;;;;;5184014;28;20453;-43
2023/06/26 02:02:58;;;;;;;16.67;12.20;;;20.20;99.90;;;;;;5171095;28;20439;-43
2023/06/26 02:05:30;;;;;;;16.90;10.27;;;20.10;99.90;;;;;;5179900;28;20830;-43
2023/06/26 02:08:02;;;;;;;13.67;10.70;;;20.10;99.90;;;;;;5184684;28;20182;-43
2023/06/26 02:10:34;;;;;;;14.40;11.00;;;20.10;99.90;;;;;;5185077;28;20493;-46
2023/06/26 02:13:04;;;;;;;13.90;12.10;;;20.10;99.90;;;;;;5180156;28;20455;-43
2023/06/26 02:15:35;;;;;;;11.13;10.00;;;20.00;99.90;;;;;;5177159;28;20446;-43
2023/06/26 02:18:05;;;;;;;13.30;11.23;;;20.10;99.90;;;;;;5176045;28;20208;-42
2023/06/26 02:20:36;;;;;;;13.67;9.87;;;20.10;99.90;;;;;;5185466;28;20196;-43
2023/06/26 02:23:06;;;;;;;12.00;10.47;;;20.10;99.90;;;;;;5183647;28;20208;-44
2023/06/26 02:25:37;;;;;;;16.90;11.00;;;20.10;99.90;;;;;;5169920;28;20668;-43
2023/06/26 02:28:08;;;;;;;15.97;12.33;;;20.00;99.90;;;;;;5176237;28;20188;-43
2023/06/26 02:30:38;;;;;;;14.93;11.13;;;20.10;99.90;;;;;;5179249;28;20211;-42
2023/06/26 02:33:09;;;;;;;15.70;11.77;;;20.10;99.90;;;;;;5174804;28;20575;-43
2023/06/26 02:35:39;;;;;;;14.53;10.90;;;20.10;99.90;;;;;;5180169;28;20189;-43
2023/06/26 02:38:12;;;;;;;13.73;10.40;;;20.10;99.90;;;;;;5166159;28;20176;-43
2023/06/26 02:40:42;;;;;;;12.63;11.07;;;20.10;99.90;;;;;;5187024;28;20220;-44
2023/06/26 02:43:14;;;;;;;16.27;12.20;;;20.00;99.90;;;;;;5164869;28;20446;-42
2023/06/26 02:45:45;;;;;;;12.87;11.57;;;20.00;99.90;;;;;;5183644;28;20747;-43
2023/06/26 02:48:15;;;;;;;20.27;11.70;;;20.00;99.90;;;;;;5180652;28;20463;-43
2023/06/26 02:50:46;;;;;;;13.27;11.53;;;20.00;99.90;;;;;;5169132;28;20224;-43
2023/06/26 02:53:17;;;;;;;16.13;10.93;;;20.00;99.90;;;;;;5170692;28;20244;-44
2023/06/26 02:55:47;;;;;;;14.00;10.63;;;20.00;99.90;;;;;;5167672;28;20683;-44
2023/06/26 02:58:18;;;;;;;16.73;10.70;;;19.90;99.90;;;;;;5188953;28;20181;-44
2023/06/26 03:00:48;;;;;;;13.83;10.43;;;19.90;99.90;;;;;;5185777;28;20204;-43
2023/06/26 03:03:19;;;;;;;15.13;10.90;;;19.90;99.90;;;;;;5182052;28;20657;-44
2023/06/26 03:05:50;;;;;;;15.40;12.10;;;19.80;99.90;;;;;;5179047;28;20188;-43
2023/06/26 03:08:20;;;;;;;13.60;10.43;;;19.80;99.90;;;;;;5185261;28;20235;-43
2023/06/26 03:10:51;;;;;;;18.10;13.03;;;19.80;99.90;;;;;;5183897;28;20287;-44
2023/06/26 03:13:21;;;;;;;15.13;11.80;;;19.70;99.90;;;;;;5185696;28;20636;-44
2023/06/26 03:15:52;;;;;;;15.90;12.57;;;19.70;99.90;;;;;;5184411;28;20234;-43
2023/06/26 03:18:23;;;;;;;15.70;12.70;;;19.70;99.90;;;;;;5183641;28;20183;-44
2023/06/26 03:20:55;;;;;;;15.30;13.03;;;19.70;99.90;;;;;;5173518;28;20615;-43
2023/06/26 03:23:25;;;;;;;13.27;11.87;;;19.70;99.90;;;;;;5183338;28;20307;-44
2023/06/26 03:25:56;;;;;;;15.77;11.70;;;19.60;99.90;;;;;;5185687;28;20517;-44
2023/06/26 03:28:28;;;;;;;14.23;11.83;;;19.60;99.90;;;;;;5180905;28;20706;-43
2023/06/26 03:30:58;;;;;;;16.87;12.30;;;19.60;99.90;;;;;;5187175;28;20203;-44
2023/06/26 03:33:29;;;;;;;19.70;12.50;;;19.60;99.90;;;;;;5184392;28;20463;-42
2023/06/26 03:36:00;;;;;;;16.33;12.90;;;19.60;99.90;;;;;;5181396;28;20176;-43
2023/06/26 03:38:30;;;;;;;15.43;12.10;;;19.70;99.90;;;;;;5180889;28;20225;-43
2023/06/26 03:41:02;;;;;;;18.10;13.70;;;19.70;99.90;;;;;;5164710;28;20228;-43
2023/06/26 03:43:33;;;;;;;17.33;13.97;;;19.70;99.90;;;;;;5161494;28;20229;-44
2023/06/26 03:46:04;;;;;;;14.57;11.90;;;19.70;99.90;;;;;;5182681;28;20434;-44
2023/06/26 03:48:35;;;;;;;14.20;12.10;;;19.80;99.90;;;;;;5164757;28;20447;-43
2023/06/26 03:51:07;;;;;;;13.57;12.27;;;19.90;99.90;;;;;;5165037;28;20207;-43
2023/06/26 03:53:39;;;;;;;13.07;11.07;;;20.00;99.90;;;;;;5180611;28;20209;-43
2023/06/26 03:56:09;;;;;;;14.33;11.10;;;20.20;99.90;;;;;;5183921;28;20435;-43
2023/06/26 03:58:40;;;;;;;15.27;11.20;;;20.50;99.90;;;;;;5168698;28;20430;-44
2023/06/26 04:01:10;;;;;;;15.00;11.40;;;20.70;99.90;;;;;;5175500;28;20201;-45
2023/06/26 04:03:41;;;;;;;23.20;12.10;;;20.90;99.90;;;;;;5172509;28;20212;-44
2023/06/26 04:06:12;;;;;;;12.10;10.80;;;21.10;99.90;;;;;;5184546;28;20173;-43
2023/06/26 04:08:42;;;;;;;19.47;13.33;;;21.30;99.90;;;;;;5151951;28;20556;-43
2023/06/26 04:11:13;;;;;;;15.77;12.77;;;21.40;99.90;;;;;;5167592;28;20212;-43
2023/06/26 04:13:44;;;;;;;11.80;10.60;;;21.60;99.90;;;;;;5184687;28;20228;-43
2023/06/26 04:16:15;;;;;;;11.50;10.30;;;21.80;99.90;;;;;;5167970;28;20176;-43
2023/06/26 04:18:46;;;;;;;12.50;10.07;;;21.90;99.90;;;;;;5175401;28;20172;-44
2023/06/26 04:21:17;;;;;;;12.83;9.83;;;22.10;99.90;;;;;;5175033;28;20547;-42
2023/06/26 04:23:47;;;;;;;13.73;10.83;;;22.40;99.90;;;;;;5185293;28;20192;-42
2023/06/26 04:26:18;;;;;;;18.20;10.77;;;22.60;99.90;;;;;;5185994;28;20211;-42
2023/06/26 04:28:48;;;;;;;12.60;9.60;;;22.80;99.90;;;;;;5170427;28;20525;-43
2023/06/26 04:31:19;;;;;;;11.47;9.73;;;23.00;99.90;;;;;;5164328;28;20212;-42
2023/06/26 04:33:50;;;;;;;13.80;10.70;;;23.20;99.90;;;;;;5183852;28;20211;-42
2023/06/26 04:36:21;;;;;;;16.50;10.73;;;23.40;99.90;;;;;;5185406;28;20173;-42
2023/06/26 04:38:52;;;;;;;23.43;11.17;;;23.60;99.90;;;;;;5167679;28;20436;-43
2023/06/26 04:41:23;;;;;;;14.83;12.20;;;23.60;99.90;;;;;;5207177;22;20496;-48
2023/06/26 04:43:53;;;;;;;14.03;10.60;;;23.60;99.90;;;;;;5254973;28;20262;-48
2023/06/26 04:46:24;;;;;;;14.43;9.83;;;23.40;99.90;;;;;;5249222;28;20186;-47
2023/06/26 04:48:57;;;;;;;13.17;11.63;;;23.40;99.90;;;;;;5244666;28;20601;-47
2023/06/26 04:51:28;;;;;;;15.63;10.00;;;23.40;99.90;;;;;;5208642;28;20214;-47
2023/06/26 04:53:59;;;;;;;11.77;9.20;;;23.60;99.90;;;;;;5225984;28;20462;-47
2023/06/26 04:56:30;;;;;;;11.97;9.57;;;24.30;99.90;;;;;;5227774;28;20183;-48
2023/06/26 04:59:02;;;;;;;9.80;8.77;;;24.80;99.90;;;;;;5232607;28;20211;-47
2023/06/26 05:01:33;;;;;;;10.43;9.37;;;25.10;99.90;;;;;;5210692;28;20991;-47
2023/06/26 05:04:04;;;;;;;9.33;8.30;;;25.60;99.90;;;;;;5225577;28;20425;-46
2023/06/26 05:06:35;;;;;;;16.73;10.57;;;26.50;99.90;;;;;;5232543;28;20444;-46
2023/06/26 05:09:06;;;;;;;10.63;9.53;;;27.60;99.90;;;;;;5230679;28;20657;-47
2023/06/26 05:11:37;;;;;;;9.90;8.67;;;27.90;99.90;;;;;;5233888;28;20658;-45
2023/06/26 05:14:09;;;;;;;8.40;7.60;;;28.10;98.30;;;;;;5214271;28;20206;-48
2023/06/26 05:16:40;;;;;;;10.77;8.00;;;28.00;96.90;;;;;;5233181;28;20425;-46
2023/06/26 05:19:10;;;;;;;9.13;7.90;;;28.00;97.10;;;;;;5212736;28;20442;-47
2023/06/26 05:21:42;;;;;;;11.33;9.47;;;28.00;95.60;;;;;;5207278;28;20964;-47
2023/06/26 05:24:15;;;;;;;9.90;8.90;;;27.80;95.30;;;;;;5205848;28;20188;-48
2023/06/26 05:26:46;;;;;;;10.00;8.83;;;27.70;95.30;;;;;;5231802;28;20434;-47
2023/06/26 05:29:17;;;;;;;14.17;8.60;;;27.90;95.60;;;;;;5227743;28;21138;-48
2023/06/26 05:31:50;;;;;;;8.10;6.80;;;28.90;93.40;;;;;;5214321;28;20448;-47
2023/06/26 05:34:23;;;;;;;12.03;7.47;;;29.50;91.20;;;;;;5230945;28;20213;-47
2023/06/26 05:36:57;;;;;;;13.30;8.53;;;30.00;84.20;;;;;;5229901;28;20425;-47
2023/06/26 05:39:28;;;;;;;9.10;8.23;;;29.90;80.80;;;;;;5224719;28;20236;-48
2023/06/26 05:41:59;;;;;;;11.13;8.50;;;29.90;79.50;;;;;;5224908;28;20718;-47
2023/06/26 05:44:29;;;;;;;15.70;7.90;;;30.00;76.10;;;;;;5230464;28;20221;-48
2023/06/26 05:47:00;;;;;;;11.30;7.63;;;30.40;74.40;;;;;;5224804;28;20228;-47
2023/06/26 05:49:31;;;;;;;9.03;8.00;;;30.80;72.40;;;;;;5213484;28;20281;-48
2023/06/26 05:52:02;;;;;;;9.70;7.87;;;31.30;69.30;;;;;;5213871;28;20199;-48
2023/06/26 05:54:33;;;;;;;8.73;7.83;;;31.80;65.10;;;;;;5231066;28;20175;-48
2023/06/26 05:57:04;;;;;;;10.97;7.20;;;33.20;60.40;;;;;;5225646;28;20182;-46
2023/06/26 05:59:39;;;;;;;8.52;7.15;;;35.00;55.10;;;;;;5229508;28;20175;-48
2023/06/26 06:02:11;;;;;;;7.53;6.80;;;36.50;49.10;;;;;;5220584;28;20190;-47
2023/06/26 06:04:41;;;;;;;8.52;7.07;;;37.90;44.80;;;;;;5220725;28;20198;-48
2023/06/26 06:07:12;;;;;;;10.20;8.07;;;38.70;42.10;;;;;;5219311;28;20545;-48
2023/06/26 06:09:43;;;;;;;7.50;6.13;;;39.00;40.30;;;;;;5231321;28;20216;-48
2023/06/26 06:12:14;;;;;;;9.05;7.32;;;39.30;40.20;;;;;;5222400;28;20288;-47
2023/06/26 06:14:45;;;;;;;11.05;7.80;;;39.70;38.70;;;;;;5211003;28;20189;-47
2023/06/26 06:17:15;;;;;;;6.47;5.93;;;40.30;37.10;;;;;;5212334;28;20186;-50
2023/06/26 06:19:47;;;;;;;10.77;6.88;;;40.80;36.40;;;;;;5232834;28;20198;-47
2023/06/26 06:22:17;;;;;;;6.15;5.63;;;41.20;34.20;;;;;;5231129;28;20226;-47
2023/06/26 06:24:51;;;;;;;7.65;5.63;;;41.40;34.00;;;;;;5210414;28;20701;-48
2023/06/26 06:27:22;;;;;;;7.78;6.82;;;41.50;34.10;;;;;;5230123;28;20209;-47
2023/06/26 06:29:53;;;;;;;7.47;5.28;;;41.70;33.80;;;;;;5223109;28;20204;-47
2023/06/26 06:32:24;;;;;;;21.35;6.55;;;42.00;33.60;;;;;;5200454;28;20289;-48
2023/06/26 06:34:55;;;;;;;7.13;4.90;;;42.70;32.30;;;;;;5230871;28;20261;-47
2023/06/26 06:37:26;;;;;;;8.13;4.82;;;43.30;31.10;;;;;;5192691;28;20187;-47
2023/06/26 06:39:59;;;;;;;8.95;5.65;;;43.10;30.80;;;;;;5204882;28;20565;-47
2023/06/26 06:42:30;;;;;;;7.18;5.97;;;43.10;30.80;;;;;;5208745;28;20310;-48
2023/06/26 06:45:03;;;;;;;6.15;4.82;;;43.60;30.20;;;;;;5195754;28;20269;-48
2023/06/26 06:47:34;;;;;;;5.95;5.50;;;43.70;29.60;;;;;;5224786;28;20487;-47
2023/06/26 06:50:08;;;;;;;12.02;4.88;;;43.80;29.60;;;;;;5210087;28;20224;-46
2023/06/26 06:52:40;;;;;;;5.60;5.18;;;43.90;29.30;;;;;;5212069;28;20749;-49
2023/06/26 06:55:10;;;;;;;5.53;4.97;;;44.10;29.00;;;;;;5221573;28;20181;-48
2023/06/26 06:57:41;;;;;;;5.72;5.22;;;44.20;28.80;;;;;;5213105;28;20186;-48
2023/06/26 07:00:16;;;;;;;7.65;5.22;;;44.60;28.30;;;;;;5221195;28;20171;-47
2023/06/26 07:02:47;;;;;;;7.80;5.40;;;44.10;28.60;;;;;;5218340;28;20189;-47
2023/06/26 07:05:17;;;;;;;5.00;4.70;;;43.30;28.20;;;;;;5213937;28;20178;-48
2023/06/26 07:07:48;;;;;;;5.78;5.00;;;42.80;29.10;;;;;;5200192;28;20210;-48
2023/06/26 07:10:19;;;;;;;4.57;4.28;;;43.00;28.80;;;;;;5227981;28;20197;-47
2023/06/26 07:12:49;;;;;;;4.53;4.22;;;43.00;29.00;;;;;;5224448;28;20206;-48
2023/06/26 07:15:20;;;;;;;5.35;4.85;;;43.40;28.90;;;;;;5207150;28;20266;-47
2023/06/26 07:17:51;;;;;;;5.13;4.63;;;43.90;28.60;;;;;;5226189;28;20619;-47
2023/06/26 07:20:21;;;;;;;6.82;6.22;;;43.30;28.70;;;;;;5196062;28;20301;-47
2023/06/26 07:22:53;;;;;;;5.90;4.50;;;43.30;28.50;;;;;;5230098;28;20541;-47
2023/06/26 07:25:24;;;;;;;4.18;3.83;;;43.20;28.30;;;;;;5225718;28;20221;-49
2023/06/26 07:27:54;;;;;;;4.82;4.53;;;43.70;28.40;;;;;;5201703;28;20217;-47
2023/06/26 07:30:26;;;;;;;4.65;4.18;;;43.70;28.10;;;;;;5230680;28;20224;-47
2023/06/26 07:32:57;;;;;;;4.70;3.97;;;43.90;28.10;;;;;;5216282;28;20202;-48
2023/06/26 07:35:31;;;;;;;4.53;4.22;;;43.90;27.70;;;;;;5221891;28;20189;-47
2023/06/26 07:38:02;;;;;;;4.30;4.07;;;43.70;27.80;;;;;;5229341;28;20214;-48
2023/06/26 07:40:32;;;;;;;5.40;3.67;;;44.30;27.60;;;;;;5211078;28;20572;-47
2023/06/26 07:43:03;;;;;;;5.13;4.65;;;44.60;27.40;;;;;;5211241;28;20225;-48
2023/06/26 07:45:34;;;;;;;4.63;4.18;;;44.70;26.50;;;;;;5224529;28;20546;-48
2023/06/26 07:48:06;;;;;;;4.28;3.85;;;44.30;26.60;;;;;;5209031;28;20178;-48
2023/06/26 07:50:37;;;;;;;3.78;3.53;;;44.40;26.70;;;;;;5210393;28;20220;-47
2023/06/26 07:53:07;;;;;;;4.53;3.80;;;43.60;26.80;;;;;;5216137;28;20783;-47
2023/06/26 07:55:38;;;;;;;4.15;3.85;;;43.90;27.50;;;;;;5227333;28;20178;-47
2023/06/26 07:58:09;;;;;;;7.28;3.70;;;44.30;27.30;;;;;;5223305;28;20233;-47
2023/06/26 08:00:40;;;;;;;4.47;4.07;;;44.40;26.40;;;;;;5203983;28;20737;-48
2023/06/26 08:03:11;;;;;;;3.90;3.70;;;44.90;26.20;;;;;;5210605;28;20182;-47
2023/06/26 08:05:42;;;;;;;3.58;3.38;;;44.90;26.30;;;;;;5231340;28;20194;-48
2023/06/26 08:08:12;;;;;;;4.47;4.18;;;44.80;26.00;;;;;;5214717;28;20182;-48
2023/06/26 08:10:43;;;;;;;4.53;4.13;;;44.60;25.70;;;;;;5232042;28;20209;-48
2023/06/26 08:13:14;;;;;;;4.47;4.05;;;44.30;26.20;;;;;;5214666;28;20208;-47
2023/06/26 08:15:44;;;;;;;4.18;3.97;;;44.60;26.10;;;;;;5214456;28;20190;-48
2023/06/26 08:18:15;;;;;;;4.07;3.80;;;44.20;25.90;;;;;;5198626;28;20179;-48
2023/06/26 08:20:46;;;;;;;4.00;3.80;;;43.90;26.30;;;;;;5226756;28;20221;-47
2023/06/26 08:23:16;;;;;;;4.05;3.75;;;43.30;26.60;;;;;;5232803;28;20190;-47
2023/06/26 08:25:47;;;;;;;4.07;3.78;;;43.80;26.80;;;;;;5221766;28;20182;-48
2023/06/26 08:28:18;;;;;;;4.30;4.05;;;43.90;26.50;;;;;;5220514;28;20235;-47
2023/06/26 08:30:50;;;;;;;4.50;4.05;;;43.70;26.30;;;;;;5213056;28;20293;-49
2023/06/26 08:33:21;;;;;;;3.28;3.17;;;43.90;26.30;;;;;;5201936;28;20238;-48
2023/06/26 08:35:51;;;;;;;7.53;3.88;;;43.40;25.80;;;;;;5216390;28;20227;-47
2023/06/26 08:38:22;;;;;;;3.08;2.88;;;42.90;25.30;;;;;;5233793;28;20248;-47
2023/06/26 08:40:53;;;;;;;7.32;4.28;;;42.30;26.40;;;;;;5203828;28;20214;-47
2023/06/26 08:43:23;;;;;;;3.15;3.05;;;42.50;27.00;;;;;;5227958;28;20185;-48
2023/06/26 08:45:54;;;;;;;2.97;2.75;;;42.60;26.70;;;;;;5231355;28;20186;-47
2023/06/26 08:48:25;;;;;;;3.90;3.75;;;42.40;26.60;;;;;;5200290;28;20209;-48
2023/06/26 08:51:01;;;;;;;10.00;3.78;;;41.90;26.90;;;;;;5226449;28;20198;-49
2023/06/26 08:53:52;;;;;;;5.07;2.97;;;41.00;27.50;;;;;;5218939;28;20198;-47
2023/06/26 08:56:23;;;;;;;3.13;3.03;;;39.80;28.80;;;;;;5209142;28;20182;-48
2023/06/26 08:58:54;;;;;;;3.38;3.17;;;37.70;30.30;;;;;;5231886;28;20231;-47
2023/06/26 09:01:25;;;;;;;3.00;2.90;;;36.20;32.10;;;;;;5209915;28;20207;-48
2023/06/26 09:03:56;;;;;;;3.70;3.40;;;34.90;33.50;;;;;;5214117;28;20193;-48
2023/06/26 09:06:27;;;;;;;3.28;3.10;;;34.00;34.90;;;;;;5203220;28;20178;-47
2023/06/26 09:08:57;;;;;;;3.92;3.50;;;33.30;36.80;;;;;;5211261;28;20193;-47
2023/06/26 09:11:28;;;;;;;3.10;3.00;;;33.00;37.40;;;;;;5227363;28;20677;-47
2023/06/26 09:13:59;;;;;;;3.40;3.17;;;32.80;37.40;;;;;;5229178;28;20218;-47
2023/06/26 09:16:30;;;;;;;3.90;3.67;;;32.40;37.80;;;;;;5218364;28;20178;-48
2023/06/26 09:19:01;;;;;;;3.17;2.93;;;32.30;37.90;;;;;;5220117;28;20674;-48
2023/06/26 09:21:31;;;;;;;4.33;4.03;;;32.10;37.70;;;;;;5230160;28;20248;-48
2023/06/26 09:24:02;;;;;;;3.83;3.57;;;32.00;38.70;;;;;;5230322;28;20190;-48
2023/06/26 09:26:34;;;;;;;4.70;2.80;;;31.80;38.70;;;;;;5214959;28;20202;-47
2023/06/26 09:29:05;;;;;;;3.20;2.93;;;31.80;38.90;;;;;;5227202;28;20202;-48
2023/06/26 09:31:37;;;;;;;3.73;3.17;;;31.80;38.70;;;;;;5205091;28;20207;-48
2023/06/26 09:34:08;;;;;;;3.13;2.87;;;31.80;38.70;;;;;;5209176;28;20210;-47
2023/06/26 09:36:42;;;;;;;4.50;3.20;;;31.80;38.80;;;;;;5231216;28;20243;-47
2023/06/26 09:39:14;;;;;;;2.80;2.70;;;31.80;38.60;;;;;;5200415;28;20634;-48
2023/06/26 09:41:45;;;;;;;4.73;3.40;;;31.80;38.70;;;;;;5230075;28;20558;-48
2023/06/26 09:44:15;;;;;;;3.27;2.97;;;31.70;39.10;;;;;;5222896;28;20334;-48
2023/06/26 09:46:46;;;;;;;3.10;2.90;;;31.30;39.50;;;;;;5226098;28;20253;-48
2023/06/26 09:49:17;;;;;;;3.20;3.00;;;30.80;40.10;;;;;;5206739;28;20564;-47
2023/06/26 09:51:50;;;;;;;4.07;3.70;;;30.80;41.00;;;;;;5206336;28;20348;-48
2023/06/26 09:54:22;;;;;;;6.53;3.57;;;30.80;40.30;;;;;;5218545;28;20295;-48
2023/06/26 09:56:56;;;;;;;4.67;3.70;;;30.90;40.50;;;;;;5205814;28;20433;-47
2023/06/26 09:59:27;;;;;;;3.80;3.50;;;31.10;41.10;;;;;;5229072;28;20209;-48
2023/06/26 10:01:59;;;;;;;4.20;3.87;;;31.10;40.50;;;;;;5228362;28;20673;-47
2023/06/26 10:04:30;;;;;;;3.70;3.10;;;30.70;40.40;;;;;;5211823;28;20178;-47
2023/06/26 10:07:11;;;;;;;3.30;3.10;;;30.70;41.20;;;;;;5203412;28;20441;-48
2023/06/26 10:09:44;;;;;;;3.30;3.10;;;30.70;41.40;;;;;;5199234;28;20256;-48
2023/06/26 10:12:21;;;;;;;4.87;3.77;;;30.90;40.70;;;;;;5208953;28;20517;-47
2023/06/26 10:14:53;;;;;;;3.73;3.50;;;31.00;40.20;;;;;;5220723;28;20181;-48
2023/06/26 10:17:28;;;;;;;4.90;3.47;;;31.10;40.40;;;;;;5230061;28;20183;-47
2023/06/26 10:20:03;;;;;;;3.57;3.37;;;31.00;41.10;;;;;;5199497;28;20535;-47
2023/06/26 10:22:39;;;;;;;2.60;2.50;;;31.10;41.30;;;;;;5204493;28;20188;-47
2023/06/26 10:25:12;;;;;;;3.63;3.43;;;31.20;41.10;;;;;;5229200;28;20436;-48
2023/06/26 10:27:48;;;;;;;3.40;3.30;;;31.20;40.80;;;;;;5210505;28;20217;-48
2023/06/26 10:30:26;;;;;;;8.43;5.60;;;31.40;41.80;;;;;;5228763;28;20204;-47
2023/06/26 10:32:59;;;;;;;4.10;3.80;;;31.40;41.20;;;;;;5228937;28;20213;-48
2023/06/26 10:35:30;;;;;;;2.83;2.73;;;31.40;41.10;;;;;;5223130;28;20194;-48
2023/06/26 10:38:03;;;;;;;3.53;3.33;;;31.50;40.90;;;;;;5225181;28;20206;-48
2023/06/26 10:40:48;;;;;;;4.10;3.80;;;31.50;40.80;;;;;;5226457;22;20747;-51
2023/06/26 10:43:19;;;;;;;2.80;2.70;;;31.50;40.20;;;;;;5197191;28;20199;-50
2023/06/26 10:45:55;;;;;;;5.87;5.27;;;31.50;40.10;;;;;;5194429;28;20283;-49
2023/06/26 10:48:29;;;;;;;4.50;3.77;;;31.40;39.40;;;;;;5202578;28;20167;-49
2023/06/26 10:51:13;;;;;;;3.53;3.23;;;31.30;39.70;;;;;;5207233;28;20202;-50
2023/06/26 10:53:53;;;;;;;3.90;2.93;;;31.30;40.50;;;;;;5202526;28;20694;-49
2023/06/26 10:56:51;;;;;;;3.83;3.37;;;31.20;40.30;;;;;;5202450;28;20265;-51
2023/06/26 10:59:26;;;;;;;3.43;3.23;;;31.30;40.80;;;;;;5187458;28;20262;-49
2023/06/26 11:01:57;;;;;;;2.87;2.77;;;31.40;41.10;;;;;;5205161;28;20209;-50
2023/06/26 11:05:01;;;;;;;4.10;3.20;;;31.20;41.20;;;;;;5196027;28;20718;-49
2023/06/26 11:07:31;;;;;;;2.97;2.80;;;31.00;40.90;;;;;;5185140;28;20449;-54
2023/06/26 11:10:11;;;;;;;3.50;3.30;;;31.00;41.60;;;;;;5203601;28;20490;-49
2023/06/26 11:12:44;;;;;;;3.70;3.40;;;31.20;41.70;;;;;;5200918;28;20707;-50
2023/06/26 11:15:16;;;;;;;3.77;3.57;;;31.30;41.70;;;;;;5206241;28;20215;-49
2023/06/26 11:17:48;;;;;;;3.83;3.63;;;31.50;41.30;;;;;;5207607;28;20737;-50
2023/06/26 11:20:18;;;;;;;4.10;3.80;;;31.70;40.90;;;;;;5200481;28;20253;-49
2023/06/26 11:22:53;;;;;;;4.80;4.30;;;31.80;40.80;;;;;;5195227;28;20211;-49
2023/06/26 11:25:24;;;;;;;3.27;3.13;;;32.00;40.50;;;;;;5204013;28;20189;-51
2023/06/26 11:27:55;;;;;;;4.03;3.70;;;32.00;40.30;;;;;;5201226;28;20191;-50
2023/06/26 11:30:26;;;;;;;3.87;3.60;;;32.10;40.60;;;;;;5203670;28;20191;-51
2023/06/26 11:33:07;;;;;;;7.97;3.90;;;32.10;39.50;;;;;;5197609;28;20531;-49
2023/06/26 11:35:38;;;;;;;3.93;3.33;;;32.00;40.30;;;;;;5198424;28;20301;-49
2023/06/26 11:38:09;;;;;;;4.13;3.80;;;31.70;40.50;;;;;;5187577;28;20289;-49
2023/06/26 11:40:39;;;;;;;10.47;5.33;;;31.60;41.10;;;;;;5197584;28;20179;-51
2023/06/26 11:43:10;;;;;;;5.13;3.73;;;31.70;41.50;;;;;;5202709;28;20202;-49
2023/06/26 11:45:41;;;;;;;3.33;3.13;;;31.50;40.80;;;;;;5204132;28;20270;-50
2023/06/26 11:48:12;;;;;;;3.53;3.33;;;31.40;41.10;;;;;;5206373;28;20187;-50
2023/06/26 11:50:42;;;;;;;4.43;4.13;;;31.30;41.90;;;;;;5201563;28;20185;-50
2023/06/26 11:53:16;;;;;;;5.30;4.20;;;31.40;42.40;;;;;;5198640;28;20265;-50
2023/06/26 11:55:47;;;;;;;5.47;3.80;;;31.80;42.40;;;;;;5188740;28;20214;-50
2023/06/26 11:58:17;;;;;;;7.30;4.97;;;32.20;41.00;;;;;;5198602;28;20296;-50
2023/06/26 12:00:48;;;;;;;6.87;3.83;;;32.60;40.30;;;;;;5206248;28;20736;-50
2023/06/26 12:03:19;;;;;;;3.20;3.10;;;32.70;39.90;;;;;;5205198;28;20196;-50
2023/06/26 12:05:52;;;;;;;3.17;3.07;;;32.70;39.10;;;;;;5204476;28;20186;-50
2023/06/26 12:08:24;;;;;;;3.23;2.97;;;32.60;39.30;;;;;;5201030;28;20187;-49
2023/06/26 12:10:56;;;;;;;3.30;3.10;;;32.40;39.00;;;;;;5201380;28;20302;-50
2023/06/26 12:13:26;;;;;;;6.00;3.60;;;32.30;39.80;;;;;;5198602;28;20325;-50
2023/06/26 12:15:57;;;;;;;4.70;4.17;;;32.30;40.40;;;;;;5202233;28;20183;-50
2023/06/26 12:18:36;;;;;;;3.57;3.33;;;32.50;39.80;;;;;;5197320;28;20618;-49
2023/06/26 12:21:07;;;;;;;3.60;3.40;;;32.70;40.00;;;;;;5206743;28;20274;-50
2023/06/26 12:23:41;;;;;;;3.67;3.47;;;32.90;39.30;;;;;;5203488;28;20694;-50
2023/06/26 12:26:18;;;;;;;3.97;3.77;;;32.90;38.20;;;;;;5198486;28;20643;-49
2023/06/26 12:28:49;;;;;;;3.93;3.73;;;33.00;37.90;;;;;;5187790;28;20663;-50
2023/06/26 12:31:21;;;;;;;4.50;3.87;;;33.10;38.90;;;;;;5199796;28;20218;-50
2023/06/26 12:33:52;;;;;;;6.27;4.00;;;33.00;38.00;;;;;;5199875;28;20218;-50
2023/06/26 12:36:23;;;;;;;4.33;3.70;;;33.10;37.90;;;;;;5196661;28;20194;-50
2023/06/26 12:38:54;;;;;;;3.57;3.27;;;33.20;38.30;;;;;;5203552;28;20594;-51
2023/06/26 12:41:25;;;;;;;11.00;6.50;;;33.20;37.90;;;;;;5201360;28;20219;-50
2023/06/26 12:43:56;;;;;;;4.90;4.37;;;33.10;37.40;;;;;;5188686;28;20294;-50
2023/06/26 12:46:37;;;;;;;3.60;3.40;;;32.80;38.10;;;;;;5188808;28;20217;-50
2023/06/26 12:49:08;;;;;;;5.90;3.83;;;32.50;38.40;;;;;;5205960;28;20266;-50
2023/06/26 12:51:40;;;;;;;4.37;4.00;;;32.40;38.70;;;;;;5203161;28;20357;-50
2023/06/26 12:54:10;;;;;;;3.80;3.60;;;32.30;39.10;;;;;;5207261;28;20485;-50
2023/06/26 12:56:41;;;;;;;4.23;3.70;;;32.40;38.70;;;;;;5208532;28;20182;-50
2023/06/26 12:59:11;;;;;;;4.33;3.80;;;32.40;38.80;;;;;;5198718;28;20188;-51
2023/06/26 13:01:42;;;;;;;4.17;3.87;;;32.20;38.30;;;;;;5209024;28;20249;-50
2023/06/26 13:04:13;;;;;;;4.90;4.40;;;32.00;39.30;;;;;;5205071;28;20647;-51
2023/06/26 13:06:43;;;;;;;4.60;4.30;;;32.00;39.40;;;;;;5204838;28;20265;-50